ETEB/QOB METAR and TAF weather

Enter ICAO airport designator
Station Type Date Time Source
ETEB METAR 2021/09/23 23:56 UTC NOAA

ETEB 232356Z AUTO 25007KT 9999 CLR 13/09 A3007 RMK AO2 SLP186 T01270093 10151 20125 53003 $


Station Type Date Time Source
ETEB Decoded METAR 2021/09/23 23:56 UTC NOAA

Ansbach / Katterbach, Germany (ETEB) 49-19N 010-38E 476M
Sep 23, 2021 - 07:56 PM EDT / 2021.09.23 2356 UTC
Wind: from the WSW (250 degrees) at 8 MPH (7 KT):0
Visibility: greater than 7 mile(s):0
Sky conditions: clear
Temperature: 54.9 F (12.7 C)
Dew Point: 48.7 F (9.3 C)
Relative Humidity: 79%
Pressure (altimeter): 30.07 in. Hg (1018 hPa)
Pressure tendency: 0.01 inches (0.3 hPa) higher than three hours ago
ob: ETEB 232356Z AUTO 25007KT 9999 CLR 13/09 A3007 RMK AO2 SLP186 T01270093 10151 20125 53003
cycle: 0

Station Type Date Time Source
ETEB TAF 2021/09/23 17:11 UTC NOAA

TAF ETEB 231700Z 2317/2423 25006KT 9999 SKC QNH3002INS
BECMG 2322/2323 26006KT 9999 BKN025 QNH3001INS
BECMG 2408/2409 27012KT 9999 SCT035 QNH3009INS
BECMG 2412/2413 28010G15KT 9999 SKC QNH3005INS TX19/2413Z TN10/2404Z LAST NO
AMDS AFT 2322 NEXT 2409

Example: see airport list